createdAt,value
2019-03-04T00:00:58.531Z,2.60
2019-03-04T00:03:26.465Z,2.27
2019-03-04T00:05:54.373Z,2.80
2019-03-04T00:08:22.021Z,2.53
2019-03-04T00:10:50.302Z,2.50
2019-03-04T00:13:18.513Z,2.70
2019-03-04T00:15:46.170Z,2.40
2019-03-04T00:18:13.918Z,2.20
2019-03-04T00:20:41.990Z,2.50
2019-03-04T00:23:10.033Z,2.13
2019-03-04T00:25:38.392Z,2.10
2019-03-04T00:28:07.006Z,2.07
2019-03-04T00:30:35.206Z,2.20
2019-03-04T00:33:03.228Z,2.20
2019-03-04T00:35:31.225Z,2.07
2019-03-04T00:37:59.208Z,2.17
2019-03-04T00:40:26.873Z,2.33
2019-03-04T00:42:54.910Z,2.10
2019-03-04T00:45:22.639Z,1.57
2019-03-04T00:47:50.502Z,2.50
2019-03-04T00:50:18.213Z,2.10
2019-03-04T00:52:45.866Z,2.00
2019-03-04T00:55:13.846Z,2.10
2019-03-04T00:57:41.549Z,1.83
2019-03-04T01:00:11.368Z,1.70
2019-03-04T01:02:39.092Z,1.50
2019-03-04T01:05:07.302Z,1.90
2019-03-04T01:07:35.288Z,1.57
2019-03-04T01:10:02.956Z,1.57
2019-03-04T01:12:30.966Z,1.60
2019-03-04T01:14:59.833Z,1.70
2019-03-04T01:17:27.860Z,1.50
2019-03-04T01:19:55.528Z,1.37
2019-03-04T01:22:23.535Z,1.60
2019-03-04T01:24:51.553Z,1.60
2019-03-04T01:27:19.313Z,1.40
2019-03-04T01:29:47.046Z,1.50
2019-03-04T01:32:14.834Z,1.40
2019-03-04T01:34:42.989Z,1.20
2019-03-04T01:37:11.081Z,1.40
2019-03-04T01:39:39.174Z,1.60
2019-03-04T01:42:07.258Z,1.50
2019-03-04T01:44:35.687Z,1.10
2019-03-04T01:47:04.106Z,1.10
2019-03-04T01:49:31.803Z,1.70
2019-03-04T01:52:00.233Z,1.27
2019-03-04T01:54:28.204Z,1.30
2019-03-04T01:56:56.243Z,1.53
2019-03-04T01:59:24.332Z,1.30
2019-03-04T02:01:52.707Z,1.30
2019-03-04T02:04:20.673Z,1.60
2019-03-04T02:06:48.962Z,1.20
2019-03-04T02:09:16.957Z,1.10
2019-03-04T02:11:44.615Z,1.37
2019-03-04T02:14:12.714Z,1.00
2019-03-04T02:16:40.625Z,1.00
2019-03-04T02:19:08.719Z,0.90
2019-03-04T02:21:37.154Z,1.30
2019-03-04T02:24:33.515Z,1.00
2019-03-04T02:27:02.321Z,1.10
2019-03-04T02:29:30.341Z,0.90
2019-03-04T02:31:58.858Z,1.20
2019-03-04T02:34:26.489Z,1.10
2019-03-04T02:36:54.763Z,0.80
2019-03-04T02:39:22.716Z,1.00
2019-03-04T02:41:50.976Z,1.10
2019-03-04T02:44:18.981Z,1.00
2019-03-04T02:46:46.805Z,1.20
2019-03-04T02:49:14.785Z,1.13
2019-03-04T02:51:42.509Z,1.20
2019-03-04T02:54:10.904Z,1.37
2019-03-04T02:56:39.013Z,1.30
2019-03-04T02:59:06.991Z,1.60
2019-03-04T03:01:35.069Z,1.37
2019-03-04T03:04:02.778Z,1.40
2019-03-04T03:06:31.475Z,1.80
2019-03-04T03:08:59.768Z,1.30
2019-03-04T03:11:27.496Z,1.40
2019-03-04T03:13:55.967Z,1.40
2019-03-04T03:16:24.283Z,1.33
2019-03-04T03:18:51.957Z,1.80
2019-03-04T03:21:20.113Z,1.70
2019-03-04T03:23:47.826Z,1.70
2019-03-04T03:26:16.330Z,1.70
2019-03-04T03:28:44.379Z,1.43
2019-03-04T03:31:12.743Z,1.80
2019-03-04T03:33:40.680Z,1.50
2019-03-04T03:36:08.715Z,1.67
2019-03-04T03:38:37.064Z,1.63
2019-03-04T03:41:05.374Z,1.80
2019-03-04T03:43:33.676Z,1.73
2019-03-04T03:46:01.758Z,1.73
2019-03-04T03:48:30.155Z,1.60
2019-03-04T03:50:57.839Z,1.97
2019-03-04T03:53:26.074Z,1.43
2019-03-04T03:55:54.213Z,1.90
2019-03-04T03:58:24.955Z,1.70
2019-03-04T04:00:52.273Z,1.60
2019-03-04T04:03:20.577Z,1.70
2019-03-04T04:05:48.811Z,1.70
2019-03-04T04:08:16.550Z,1.70
2019-03-04T04:10:44.893Z,1.50
2019-03-04T04:13:13.406Z,1.50
2019-03-04T04:15:41.469Z,1.50
2019-03-04T04:18:09.589Z,1.40
2019-03-04T04:20:38.009Z,1.53
2019-03-04T04:23:05.722Z,1.30
2019-03-04T04:25:33.678Z,1.40
2019-03-04T04:28:03.559Z,1.30
2019-03-04T04:30:31.609Z,1.33
2019-03-04T04:32:59.572Z,1.30
2019-03-04T04:35:27.495Z,1.30
2019-03-04T04:37:56.269Z,1.37
2019-03-04T04:40:24.661Z,1.50
2019-03-04T04:42:52.345Z,1.50
2019-03-04T04:45:21.013Z,1.13
2019-03-04T04:47:49.303Z,1.40
2019-03-04T04:50:17.292Z,1.60
2019-03-04T04:52:45.490Z,1.53
2019-03-04T04:55:13.425Z,1.50
2019-03-04T04:57:41.395Z,1.40
2019-03-04T05:00:10.572Z,1.80
2019-03-04T05:02:38.506Z,1.67
2019-03-04T05:05:06.522Z,1.60
2019-03-04T05:07:34.177Z,1.53
2019-03-04T05:10:02.506Z,1.77
2019-03-04T05:12:30.980Z,2.00
2019-03-04T05:14:58.999Z,1.80
2019-03-04T05:17:26.914Z,1.80
2019-03-04T05:19:54.589Z,1.90
2019-03-04T05:22:22.862Z,2.10
2019-03-04T05:24:51.348Z,1.70
2019-03-04T05:27:19.327Z,1.67
2019-03-04T05:29:47.509Z,1.73
2019-03-04T05:32:15.545Z,1.53
2019-03-04T05:34:43.270Z,1.30
2019-03-04T05:37:12.027Z,1.70
2019-03-04T05:39:40.601Z,1.40
2019-03-04T05:42:08.966Z,1.57
2019-03-04T05:44:36.641Z,1.63
2019-03-04T05:47:04.382Z,1.50
2019-03-04T05:49:32.439Z,2.00
2019-03-04T05:52:01.026Z,1.70
2019-03-04T05:54:28.749Z,1.63
2019-03-04T05:56:57.077Z,1.60
2019-03-04T05:59:25.138Z,1.40
2019-03-04T06:02:01.836Z,1.80
2019-03-04T06:04:29.846Z,1.70
2019-03-04T06:07:09.990Z,1.97
2019-03-04T06:09:38.260Z,1.63
2019-03-04T06:12:06.251Z,1.40
2019-03-04T06:14:34.190Z,1.60
2019-03-04T06:17:01.855Z,1.63
2019-03-04T06:19:29.910Z,1.60
2019-03-04T06:21:57.711Z,1.70
2019-03-04T06:24:25.757Z,1.60
2019-03-04T06:26:54.186Z,1.60
2019-03-04T06:29:22.319Z,1.90
2019-03-04T06:31:50.778Z,1.90
2019-03-04T06:34:18.960Z,1.30
2019-03-04T06:36:47.336Z,1.60
2019-03-04T06:39:14.983Z,1.73
2019-03-04T06:41:42.801Z,1.57
2019-03-04T06:44:10.804Z,1.20
2019-03-04T06:46:38.829Z,1.63
2019-03-04T06:49:06.898Z,1.60
2019-03-04T06:51:45.376Z,2.07
2019-03-04T06:54:19.374Z,1.30
2019-03-04T06:56:58.461Z,1.63
2019-03-04T06:59:35.634Z,1.40
2019-03-04T07:02:05.833Z,1.30
2019-03-04T07:04:39.598Z,1.20
2019-03-04T07:07:07.959Z,1.33
2019-03-04T07:09:36.072Z,1.07
2019-03-04T07:12:04.189Z,1.00
2019-03-04T07:14:32.182Z,1.23
2019-03-04T07:17:00.202Z,1.00
2019-03-04T07:19:28.936Z,1.90
2019-03-04T07:21:56.955Z,1.20
2019-03-04T07:24:25.067Z,0.67
2019-03-04T07:26:53.268Z,1.00
2019-03-04T07:29:21.009Z,0.80
2019-03-04T07:31:48.977Z,0.77
2019-03-04T07:34:17.142Z,0.80
2019-03-04T07:36:45.261Z,0.90
2019-03-04T07:39:13.782Z,0.73
2019-03-04T07:41:42.854Z,0.90
2019-03-04T07:44:10.950Z,1.00
2019-03-04T07:46:39.450Z,1.10
2019-03-04T07:49:07.310Z,0.97
2019-03-04T07:51:36.072Z,0.80
2019-03-04T07:54:04.801Z,0.90
2019-03-04T07:56:32.539Z,0.90
2019-03-04T07:59:00.625Z,0.70
2019-03-04T08:01:29.182Z,0.80
2019-03-04T08:03:57.243Z,0.70
2019-03-04T08:06:25.128Z,0.77
2019-03-04T08:09:12.956Z,0.67
2019-03-04T08:12:02.814Z,0.73
2019-03-04T08:14:30.634Z,0.73
2019-03-04T08:16:58.292Z,0.83
2019-03-04T08:19:26.471Z,0.70
2019-03-04T08:21:54.673Z,0.70
2019-03-04T08:24:22.800Z,0.70
2019-03-04T08:26:50.632Z,0.80
2019-03-04T08:29:18.594Z,0.70
2019-03-04T08:31:46.415Z,0.80
2019-03-04T08:34:14.065Z,0.70
2019-03-04T08:36:42.119Z,0.80
2019-03-04T08:39:09.883Z,0.90
2019-03-04T08:41:38.266Z,1.47
2019-03-04T08:44:06.235Z,0.87
2019-03-04T08:46:33.878Z,1.10
2019-03-04T08:49:01.889Z,1.00
2019-03-04T08:51:30.138Z,0.70
2019-03-04T08:53:57.959Z,0.70
2019-03-04T08:56:26.280Z,0.80
2019-03-04T08:58:54.304Z,1.00
2019-03-04T09:01:22.310Z,1.00
2019-03-04T09:03:50.267Z,0.80
2019-03-04T09:06:18.421Z,0.77
2019-03-04T09:08:46.478Z,0.97
2019-03-04T09:11:14.227Z,0.93
2019-03-04T09:13:42.311Z,0.90
2019-03-04T09:16:10.345Z,0.90
2019-03-04T09:18:38.350Z,1.00
2019-03-04T09:21:06.690Z,0.90
2019-03-04T09:23:34.462Z,0.77
2019-03-04T09:26:04.234Z,1.20
2019-03-04T09:28:32.509Z,0.90
2019-03-04T09:31:00.826Z,0.60
2019-03-04T09:33:29.393Z,1.57
2019-03-04T09:35:57.376Z,0.93
2019-03-04T09:38:25.663Z,0.80
2019-03-04T09:40:53.667Z,1.00
2019-03-04T09:43:21.486Z,0.70
2019-03-04T09:45:49.614Z,1.13
2019-03-04T09:48:17.381Z,0.80
2019-03-04T09:50:45.176Z,0.90
2019-03-04T09:53:13.162Z,1.37
2019-03-04T09:55:41.639Z,1.03
2019-03-04T09:58:09.711Z,1.03
2019-03-04T10:00:51.985Z,1.40
2019-03-04T10:03:48.154Z,1.13
2019-03-04T10:06:24.133Z,1.10
2019-03-04T10:08:55.423Z,1.20
2019-03-04T10:11:31.016Z,1.30
2019-03-04T10:14:17.218Z,1.20
2019-03-04T10:16:48.099Z,1.03
2019-03-04T10:19:21.582Z,1.20
2019-03-04T10:22:11.716Z,1.07
2019-03-04T10:24:42.894Z,1.27
2019-03-04T10:27:19.075Z,1.63
2019-03-04T10:29:56.897Z,1.23
2019-03-04T10:32:31.034Z,1.20
2019-03-04T10:35:03.616Z,1.00
2019-03-04T10:37:59.621Z,0.90
2019-03-04T10:40:40.747Z,1.00
2019-03-04T10:43:21.941Z,0.80
2019-03-04T10:46:11.830Z,1.00
2019-03-04T10:48:39.781Z,2.27
2019-03-04T10:51:08.078Z,1.27
2019-03-04T10:53:36.337Z,1.10
2019-03-04T10:56:04.018Z,1.20
2019-03-04T10:58:34.552Z,1.23
2019-03-04T11:01:02.746Z,1.30
2019-03-04T11:03:31.336Z,1.20
2019-03-04T11:05:59.445Z,1.10
2019-03-04T11:08:27.674Z,1.17
2019-03-04T11:10:56.296Z,0.77
2019-03-04T11:13:23.954Z,1.17
2019-03-04T11:15:51.902Z,1.03
2019-03-04T11:18:19.997Z,1.10
2019-03-04T11:20:47.727Z,1.27
2019-03-04T11:23:15.482Z,1.00
2019-03-04T11:25:43.236Z,0.90
2019-03-04T11:28:10.901Z,1.03
2019-03-04T11:30:39.173Z,1.00
2019-03-04T11:33:07.746Z,1.10
2019-03-04T11:35:36.501Z,1.10
2019-03-04T11:38:04.530Z,0.70
2019-03-04T11:40:35.504Z,0.80
2019-03-04T11:43:03.613Z,0.90
2019-03-04T11:45:32.071Z,0.90
2019-03-04T11:47:59.998Z,1.07
2019-03-04T11:50:27.655Z,0.80
2019-03-04T11:52:55.675Z,0.97
2019-03-04T11:55:23.911Z,0.87
2019-03-04T11:57:52.417Z,0.80
2019-03-04T12:00:30.398Z,0.80
2019-03-04T12:02:58.065Z,0.70
2019-03-04T12:05:26.088Z,0.80
2019-03-04T12:07:54.001Z,0.80
2019-03-04T12:10:22.017Z,0.83
2019-03-04T12:12:50.357Z,0.73
2019-03-04T12:15:18.311Z,0.70
2019-03-04T12:17:45.971Z,0.60
2019-03-04T12:20:14.403Z,0.60
2019-03-04T12:22:42.326Z,0.90
2019-03-04T12:25:11.558Z,1.00
2019-03-04T12:27:39.682Z,1.00
2019-03-04T12:30:09.505Z,0.90
2019-03-04T12:32:37.937Z,0.90
2019-03-04T12:35:07.425Z,1.10
2019-03-04T12:37:35.383Z,1.00
2019-03-04T12:40:03.381Z,1.20
2019-03-04T12:42:31.353Z,1.30
2019-03-04T12:44:59.978Z,1.67
2019-03-04T12:47:27.949Z,1.93
2019-03-04T12:49:55.599Z,2.00
2019-03-04T12:52:23.397Z,2.37
2019-03-04T12:54:51.457Z,2.60
2019-03-04T12:57:19.128Z,2.50
2019-03-04T12:59:46.781Z,2.40
2019-03-04T13:02:15.146Z,2.20
2019-03-04T13:04:43.061Z,2.57
2019-03-04T13:07:11.173Z,2.30
2019-03-04T13:09:38.847Z,2.30
2019-03-04T13:12:07.646Z,2.20
2019-03-04T13:14:35.656Z,3.30
2019-03-04T13:17:03.321Z,2.00
2019-03-04T13:19:31.860Z,1.93
2019-03-04T13:22:08.271Z,2.07
2019-03-04T13:24:29.498Z,1.80
2019-03-04T13:26:57.432Z,1.90
2019-03-04T13:29:25.082Z,1.80
2019-03-04T13:31:53.405Z,1.90
2019-03-04T13:34:21.507Z,2.10
2019-03-04T13:36:49.893Z,2.10
2019-03-04T13:39:17.713Z,2.63
2019-03-04T13:41:45.996Z,2.43
2019-03-04T13:44:14.034Z,2.33
2019-03-04T13:46:42.590Z,2.07
2019-03-04T13:49:10.869Z,2.40
2019-03-04T13:51:39.206Z,2.00
2019-03-04T13:54:07.481Z,2.00
2019-03-04T13:56:35.753Z,2.47
2019-03-04T13:59:04.021Z,2.30
2019-03-04T14:01:32.270Z,2.63
2019-03-04T14:03:59.948Z,2.43
2019-03-04T14:06:27.593Z,3.10
2019-03-04T14:08:55.599Z,2.10
2019-03-04T14:11:23.258Z,2.07
2019-03-04T14:13:51.440Z,1.90
2019-03-04T14:16:19.609Z,1.77
2019-03-04T14:18:47.892Z,2.10
2019-03-04T14:21:16.108Z,1.70
2019-03-04T14:23:43.758Z,2.20
2019-03-04T14:26:12.113Z,1.70
2019-03-04T14:28:40.317Z,2.07
2019-03-04T14:31:08.241Z,1.97
2019-03-04T14:33:36.477Z,2.50
2019-03-04T14:36:04.493Z,2.10
2019-03-04T14:38:32.462Z,1.97
2019-03-04T14:41:00.457Z,2.10
2019-03-04T14:43:28.441Z,2.03
2019-03-04T14:45:56.462Z,2.50
2019-03-04T14:48:24.101Z,2.70
2019-03-04T14:50:52.145Z,2.33
2019-03-04T14:53:20.833Z,2.10
2019-03-04T14:55:48.859Z,2.30
2019-03-04T14:58:16.773Z,2.30
2019-03-04T15:00:46.177Z,2.63
2019-03-04T15:03:22.782Z,2.37
2019-03-04T15:05:44.069Z,2.23
2019-03-04T15:08:12.334Z,2.23
2019-03-04T15:10:40.925Z,1.93
2019-03-04T15:13:09.977Z,2.10
2019-03-04T15:15:38.604Z,1.73
2019-03-04T15:18:06.699Z,2.00
2019-03-04T15:20:34.742Z,1.67
2019-03-04T15:23:03.015Z,2.03
2019-03-04T15:25:31.288Z,2.20
2019-03-04T15:28:09.397Z,2.40
2019-03-04T15:30:37.778Z,1.90
2019-03-04T15:33:05.553Z,2.20
2019-03-04T15:35:33.477Z,2.20
2019-03-04T15:38:01.684Z,2.27
2019-03-04T15:40:29.433Z,2.60
2019-03-04T15:42:57.206Z,3.00
2019-03-04T15:45:25.425Z,2.50
2019-03-04T15:47:53.091Z,2.53
2019-03-04T15:50:21.133Z,2.30
2019-03-04T15:52:49.165Z,2.77
2019-03-04T15:55:17.444Z,2.80
2019-03-04T15:57:45.438Z,2.87
2019-03-04T16:00:13.645Z,3.10
2019-03-04T16:02:41.999Z,3.30
2019-03-04T16:05:10.226Z,2.60
2019-03-04T16:07:38.241Z,2.40
2019-03-04T16:10:07.000Z,2.00
2019-03-04T16:12:37.357Z,2.30
2019-03-04T16:15:05.954Z,2.20
2019-03-04T16:17:38.313Z,2.40
2019-03-04T16:20:15.830Z,2.00
2019-03-04T16:22:40.586Z,2.03
2019-03-04T16:25:08.719Z,1.90
2019-03-04T16:27:36.405Z,1.63
2019-03-04T16:30:05.729Z,1.80
2019-03-04T16:32:33.741Z,1.60
2019-03-04T16:35:02.047Z,1.60
2019-03-04T16:37:30.197Z,1.60
2019-03-04T16:39:58.554Z,1.40
2019-03-04T16:42:26.581Z,1.67
2019-03-04T16:44:54.355Z,1.40
2019-03-04T16:47:26.209Z,1.13
2019-03-04T16:49:55.118Z,1.20
2019-03-04T16:52:24.858Z,1.30
2019-03-04T16:54:52.607Z,1.40
2019-03-04T16:57:22.126Z,1.50
2019-03-04T16:59:50.135Z,1.50
2019-03-04T17:02:18.433Z,1.27
2019-03-04T17:04:46.097Z,1.57
2019-03-04T17:07:14.025Z,1.67
2019-03-04T17:09:41.818Z,1.77
2019-03-04T17:12:09.843Z,1.30
2019-03-04T17:14:38.173Z,1.70
2019-03-04T17:17:13.213Z,1.73
2019-03-04T17:19:41.825Z,1.60
2019-03-04T17:22:10.194Z,1.70
2019-03-04T17:24:38.181Z,1.90
2019-03-04T17:27:07.242Z,2.00
2019-03-04T17:29:35.391Z,1.90
2019-03-04T17:32:03.634Z,1.77
2019-03-04T17:34:31.788Z,1.77
2019-03-04T17:36:59.726Z,2.10
2019-03-04T17:39:28.023Z,2.00
2019-03-04T17:41:56.618Z,2.20
2019-03-04T17:44:24.991Z,2.23
2019-03-04T17:46:52.884Z,2.00
2019-03-04T17:49:21.247Z,2.20
2019-03-04T17:51:48.908Z,1.50
2019-03-04T17:54:16.562Z,1.37
2019-03-04T17:56:44.825Z,1.67
2019-03-04T17:59:15.471Z,1.73
2019-03-04T18:01:43.828Z,1.50
2019-03-04T18:04:12.026Z,1.83
2019-03-04T18:06:39.802Z,1.50
2019-03-04T18:09:07.753Z,1.30
2019-03-04T18:11:36.109Z,1.70
2019-03-04T18:14:05.033Z,2.07
2019-03-04T18:16:33.710Z,2.10
2019-03-04T18:19:01.984Z,2.20
2019-03-04T18:21:30.277Z,1.70
2019-03-04T18:23:58.655Z,2.00
2019-03-04T18:26:35.474Z,1.63
2019-03-04T18:29:05.757Z,1.60
2019-03-04T18:31:37.881Z,1.83
2019-03-04T18:34:24.677Z,1.83
2019-03-04T18:37:04.870Z,2.00
2019-03-04T18:39:51.982Z,2.00
2019-03-04T18:42:38.775Z,1.90
2019-03-04T18:45:13.418Z,1.60
2019-03-04T18:47:45.000Z,1.50
2019-03-04T18:50:13.163Z,1.60
2019-03-04T18:52:40.843Z,1.80
2019-03-04T18:55:08.790Z,1.60
2019-03-04T18:57:36.686Z,1.70
2019-03-04T19:00:07.421Z,2.07
2019-03-04T19:02:35.464Z,1.60
2019-03-04T19:05:03.901Z,1.70
2019-03-04T19:07:31.824Z,1.40
2019-03-04T19:09:59.493Z,1.53
2019-03-04T19:12:27.814Z,1.70
2019-03-04T19:14:56.263Z,1.47
2019-03-04T19:17:33.158Z,1.87
2019-03-04T19:19:53.693Z,1.40
2019-03-04T19:22:22.277Z,1.80
2019-03-04T19:24:50.218Z,1.50
2019-03-04T19:27:17.897Z,1.80
2019-03-04T19:29:45.611Z,1.70
2019-03-04T19:32:13.633Z,1.70
2019-03-04T19:34:41.654Z,1.60
2019-03-04T19:37:10.771Z,1.40
2019-03-04T19:39:39.101Z,2.30
2019-03-04T19:42:06.785Z,1.80
2019-03-04T19:44:34.553Z,1.57
2019-03-04T19:47:02.473Z,1.30
2019-03-04T19:49:30.659Z,1.30
2019-03-04T19:51:59.454Z,1.20
2019-03-04T19:54:27.929Z,1.30
2019-03-04T19:56:56.233Z,1.43
2019-03-04T19:59:24.445Z,1.30
2019-03-04T20:01:52.105Z,1.53
2019-03-04T20:04:20.015Z,1.63
2019-03-04T20:06:47.973Z,2.30
2019-03-04T20:09:16.254Z,1.90
2019-03-04T20:11:44.530Z,1.20
2019-03-04T20:14:12.706Z,1.40
2019-03-04T20:16:40.534Z,1.50
2019-03-04T20:19:08.492Z,2.07
2019-03-04T20:21:36.469Z,2.20
2019-03-04T20:24:04.471Z,2.53
2019-03-04T20:26:32.457Z,1.90
2019-03-04T20:29:00.124Z,2.23
2019-03-04T20:31:28.130Z,2.70
2019-03-04T20:33:56.161Z,2.90
2019-03-04T20:36:25.847Z,2.90
2019-03-04T20:38:54.061Z,3.30
2019-03-04T20:41:22.316Z,2.60
2019-03-04T20:43:50.556Z,2.50
2019-03-04T20:46:18.564Z,2.43
2019-03-04T20:48:46.551Z,1.60
2019-03-04T20:51:14.819Z,1.70
2019-03-04T20:53:42.773Z,1.33
2019-03-04T20:56:11.568Z,1.60
2019-03-04T20:58:39.521Z,1.70
2019-03-04T21:01:07.760Z,1.63
2019-03-04T21:03:35.524Z,1.83
2019-03-04T21:06:03.183Z,1.70
2019-03-04T21:08:31.169Z,2.10
2019-03-04T21:10:59.581Z,2.53
2019-03-04T21:13:35.240Z,1.70
2019-03-04T21:15:57.812Z,1.40
2019-03-04T21:18:25.817Z,1.50
2019-03-04T21:20:53.853Z,1.40
2019-03-04T21:23:22.197Z,1.30
2019-03-04T21:25:54.831Z,1.40
2019-03-04T21:28:47.643Z,1.53
2019-03-04T21:31:30.440Z,1.67
2019-03-04T21:34:11.338Z,1.53
2019-03-04T21:36:45.801Z,2.40
2019-03-04T21:39:13.773Z,1.87
2019-03-04T21:41:49.926Z,1.87
2019-03-04T21:44:35.451Z,1.63
2019-03-04T21:47:34.872Z,2.00
2019-03-04T21:50:02.811Z,1.97
2019-03-04T21:53:01.798Z,2.00
2019-03-04T21:55:32.344Z,2.20
2019-03-04T21:58:00.950Z,2.23
2019-03-04T22:00:33.704Z,1.93
2019-03-04T22:03:06.400Z,2.30
2019-03-04T22:05:34.689Z,1.60
2019-03-04T22:08:03.357Z,1.80
2019-03-04T22:10:31.321Z,1.50
2019-03-04T22:12:59.867Z,1.90
2019-03-04T22:15:28.019Z,1.70
2019-03-04T22:17:56.091Z,1.30
2019-03-04T22:20:24.049Z,1.70
2019-03-04T22:22:52.075Z,1.87
2019-03-04T22:25:20.402Z,1.30
2019-03-04T22:27:48.478Z,1.43
2019-03-04T22:30:16.456Z,1.80
2019-03-04T22:32:44.478Z,1.83
2019-03-04T22:35:12.758Z,1.63
2019-03-04T22:37:40.519Z,1.67
2019-03-04T22:40:09.413Z,1.00
2019-03-04T22:42:37.734Z,1.60
2019-03-04T22:47:43.792Z,1.30
2019-03-04T22:50:12.202Z,1.10
2019-03-04T22:52:40.176Z,1.10
2019-03-04T22:55:09.714Z,1.17
2019-03-04T22:57:38.401Z,1.53
2019-03-04T23:00:27.153Z,1.23
2019-03-04T23:02:55.298Z,1.40
2019-03-04T23:05:23.624Z,1.57
2019-03-04T23:07:52.949Z,1.20
2019-03-04T23:10:25.964Z,1.90
2019-03-04T23:12:55.689Z,1.57
2019-03-04T23:15:23.961Z,1.60
2019-03-04T23:17:51.958Z,1.27
2019-03-04T23:20:19.620Z,1.80
2019-03-04T23:22:47.660Z,1.43
2019-03-04T23:25:15.860Z,1.60
2019-03-04T23:27:43.962Z,1.30
2019-03-04T23:30:12.899Z,1.50
2019-03-04T23:32:40.798Z,1.43
2019-03-04T23:35:08.973Z,1.70
2019-03-04T23:37:36.917Z,1.20
2019-03-04T23:40:04.916Z,1.73
2019-03-04T23:42:32.937Z,1.80
2019-03-04T23:45:00.599Z,1.77
2019-03-04T23:47:28.609Z,1.40
2019-03-04T23:50:10.257Z,1.97
2019-03-04T23:52:38.173Z,1.33
2019-03-04T23:55:05.870Z,1.63
2019-03-04T23:57:34.194Z,1.60
